sensor_id;sensor_type;location;lat;lon;timestamp;pressure;altitude;pressure_sealevel;temperature;humidity
70217;BME280;57608;0.000;0.000;2022-08-14T00:00:38;99690.53;;;26.46;39.63
70217;BME280;57608;0.000;0.000;2022-08-14T00:03:03;99698.91;;;26.43;39.49
70217;BME280;57608;0.000;0.000;2022-08-14T00:05:29;99695.91;;;26.37;39.57
70217;BME280;57608;0.000;0.000;2022-08-14T00:07:54;99694.56;;;26.33;39.65
70217;BME280;57608;0.000;0.000;2022-08-14T00:10:21;99691.41;;;26.30;39.44
70217;BME280;57608;0.000;0.000;2022-08-14T00:12:50;99688.19;;;26.26;39.48
70217;BME280;57608;0.000;0.000;2022-08-14T00:15:23;99688.50;;;26.23;39.50
70217;BME280;57608;0.000;0.000;2022-08-14T00:17:50;99689.69;;;26.20;39.31
70217;BME280;57608;0.000;0.000;2022-08-14T00:20:18;99688.19;;;26.18;39.58
70217;BME280;57608;0.000;0.000;2022-08-14T00:22:45;99688.19;;;26.18;39.54
70217;BME280;57608;0.000;0.000;2022-08-14T00:25:11;99689.22;;;26.17;39.54
70217;BME280;57608;0.000;0.000;2022-08-14T00:27:40;99691.22;;;26.15;39.80
70217;BME280;57608;0.000;0.000;2022-08-14T00:30:07;99677.09;;;26.13;39.40
70217;BME280;57608;0.000;0.000;2022-08-14T00:32:34;99688.88;;;26.12;39.55
70217;BME280;57608;0.000;0.000;2022-08-14T00:35:00;99682.81;;;26.10;39.57
70217;BME280;57608;0.000;0.000;2022-08-14T00:37:28;99679.50;;;26.08;39.69
70217;BME280;57608;0.000;0.000;2022-08-14T00:39:54;99687.53;;;26.08;39.87
70217;BME280;57608;0.000;0.000;2022-08-14T00:42:25;99684.00;;;26.07;39.81
70217;BME280;57608;0.000;0.000;2022-08-14T00:44:54;99686.69;;;26.07;39.82
70217;BME280;57608;0.000;0.000;2022-08-14T00:47:20;99675.13;;;26.07;39.94
70217;BME280;57608;0.000;0.000;2022-08-14T00:49:49;99674.13;;;26.08;39.89
70217;BME280;57608;0.000;0.000;2022-08-14T00:52:18;99683.00;;;26.08;40.00
70217;BME280;57608;0.000;0.000;2022-08-14T00:54:45;99677.63;;;26.08;39.96
70217;BME280;57608;0.000;0.000;2022-08-14T00:57:11;99682.81;;;26.10;40.07
70217;BME280;57608;0.000;0.000;2022-08-14T00:59:37;99676.44;;;26.11;39.84
70217;BME280;57608;0.000;0.000;2022-08-14T01:02:03;99684.50;;;26.11;40.00
70217;BME280;57608;0.000;0.000;2022-08-14T01:04:32;99680.81;;;26.12;40.23
70217;BME280;57608;0.000;0.000;2022-08-14T01:06:58;99674.59;;;26.11;40.08
70217;BME280;57608;0.000;0.000;2022-08-14T01:09:25;99676.44;;;26.11;40.00
70217;BME280;57608;0.000;0.000;2022-08-14T01:11:52;99688.03;;;26.11;39.90
70217;BME280;57608;0.000;0.000;2022-08-14T01:14:19;99686.19;;;26.12;40.05
70217;BME280;57608;0.000;0.000;2022-08-14T01:16:45;99686.19;;;26.12;40.03
70217;BME280;57608;0.000;0.000;2022-08-14T01:19:11;99686.19;;;26.12;39.91
70217;BME280;57608;0.000;0.000;2022-08-14T01:22:15;99684.50;;;26.11;39.98
70217;BME280;57608;0.000;0.000;2022-08-14T01:24:42;99687.19;;;26.11;40.11
70217;BME280;57608;0.000;0.000;2022-08-14T01:27:14;99685.34;;;26.11;39.98
70217;BME280;57608;0.000;0.000;2022-08-14T01:29:43;99688.88;;;26.12;39.88
70217;BME280;57608;0.000;0.000;2022-08-14T01:32:09;99682.81;;;26.10;40.07
70217;BME280;57608;0.000;0.000;2022-08-14T01:34:34;99685.50;;;26.10;39.91
70217;BME280;57608;0.000;0.000;2022-08-14T01:36:59;99681.13;;;26.09;40.07
70217;BME280;57608;0.000;0.000;2022-08-14T01:39:26;99689.19;;;26.09;39.93
70217;BME280;57608;0.000;0.000;2022-08-14T01:41:52;99685.84;;;26.07;39.82
70217;BME280;57608;0.000;0.000;2022-08-14T01:44:21;99683.34;;;26.05;39.82
70217;BME280;57608;0.000;0.000;2022-08-14T01:46:47;99688.00;;;26.03;39.95
70217;BME280;57608;0.000;0.000;2022-08-14T01:49:14;99689.16;;;26.00;39.68
70217;BME280;57608;0.000;0.000;2022-08-14T01:51:41;99689.50;;;25.97;39.84
70217;BME280;57608;0.000;0.000;2022-08-14T01:54:14;99689.81;;;25.94;39.69
70217;BME280;57608;0.000;0.000;2022-08-14T01:56:40;99693.84;;;25.90;39.67
70217;BME280;57608;0.000;0.000;2022-08-14T02:01:40;99692.81;;;25.83;39.85
70217;BME280;57608;0.000;0.000;2022-08-14T02:04:08;99694.03;;;25.80;39.88
70217;BME280;57608;0.000;0.000;2022-08-14T02:06:42;99697.88;;;25.78;39.88
70217;BME280;57608;0.000;0.000;2022-08-14T02:09:09;99692.00;;;25.74;40.15
70217;BME280;57608;0.000;0.000;2022-08-14T02:11:34;99696.50;;;25.73;40.37
70217;BME280;57608;0.000;0.000;2022-08-14T02:14:05;99695.84;;;25.71;40.28
70217;BME280;57608;0.000;0.000;2022-08-14T02:16:33;99698.53;;;25.71;40.52
70217;BME280;57608;0.000;0.000;2022-08-14T02:19:05;99699.53;;;25.70;40.58
70217;BME280;57608;0.000;0.000;2022-08-14T02:21:31;99708.41;;;25.71;40.32
70217;BME280;57608;0.000;0.000;2022-08-14T02:23:58;99698.53;;;25.71;40.30
70217;BME280;57608;0.000;0.000;2022-08-14T02:26:28;99702.91;;;25.72;40.72
70217;BME280;57608;0.000;0.000;2022-08-14T02:29:16;99706.25;;;25.75;40.26
70217;BME280;57608;0.000;0.000;2022-08-14T02:31:48;99704.41;;;25.75;40.78
70217;BME280;57608;0.000;0.000;2022-08-14T02:34:25;99702.56;;;25.76;40.53
70217;BME280;57608;0.000;0.000;2022-08-14T02:37:07;99706.06;;;25.76;40.68
70217;BME280;57608;0.000;0.000;2022-08-14T02:39:43;99701.56;;;25.77;40.88
70217;BME280;57608;0.000;0.000;2022-08-14T02:42:11;99702.38;;;25.77;40.66
70217;BME280;57608;0.000;0.000;2022-08-14T02:44:37;99703.91;;;25.80;40.86
70217;BME280;57608;0.000;0.000;2022-08-14T02:47:05;99700.41;;;25.79;40.61
70217;BME280;57608;0.000;0.000;2022-08-14T02:49:32;99708.44;;;25.79;40.88
70217;BME280;57608;0.000;0.000;2022-08-14T02:51:58;99703.91;;;25.80;41.00
70217;BME280;57608;0.000;0.000;2022-08-14T02:54:25;99707.44;;;25.80;40.58
70217;BME280;57608;0.000;0.000;2022-08-14T02:56:52;99703.91;;;25.80;40.71
70217;BME280;57608;0.000;0.000;2022-08-14T02:59:19;99706.59;;;25.80;40.94
70217;BME280;57608;0.000;0.000;2022-08-14T03:01:45;99709.28;;;25.80;41.09
70217;BME280;57608;0.000;0.000;2022-08-14T03:04:14;99716.31;;;25.81;40.66
70217;BME280;57608;0.000;0.000;2022-08-14T03:06:39;99717.16;;;25.81;40.67
70217;BME280;57608;0.000;0.000;2022-08-14T03:09:08;99724.38;;;25.81;40.93
70217;BME280;57608;0.000;0.000;2022-08-14T03:11:34;99721.69;;;25.81;40.81
70217;BME280;57608;0.000;0.000;2022-08-14T03:14:00;99716.31;;;25.81;41.07
70217;BME280;57608;0.000;0.000;2022-08-14T03:16:26;99717.16;;;25.81;40.84
70217;BME280;57608;0.000;0.000;2022-08-14T03:18:54;99721.69;;;25.81;40.85
70217;BME280;57608;0.000;0.000;2022-08-14T03:21:23;99728.06;;;25.80;40.90
70217;BME280;57608;0.000;0.000;2022-08-14T03:23:51;99721.00;;;25.79;40.74
70217;BME280;57608;0.000;0.000;2022-08-14T03:26:21;99725.72;;;25.77;40.71
70217;BME280;57608;0.000;0.000;2022-08-14T03:28:51;99719.84;;;25.73;40.27
70217;BME280;57608;0.000;0.000;2022-08-14T03:31:18;99715.63;;;25.70;40.74
70217;BME280;57608;0.000;0.000;2022-08-14T03:33:47;99720.47;;;25.67;40.56
70217;BME280;57608;0.000;0.000;2022-08-14T03:36:14;99723.66;;;25.62;40.77
70217;BME280;57608;0.000;0.000;2022-08-14T03:38:42;99721.13;;;25.61;40.63
70217;BME280;57608;0.000;0.000;2022-08-14T03:41:09;99721.47;;;25.58;41.09
70217;BME280;57608;0.000;0.000;2022-08-14T03:43:48;99719.94;;;25.55;40.67
70217;BME280;57608;0.000;0.000;2022-08-14T03:46:15;99714.75;;;25.53;40.79
70217;BME280;57608;0.000;0.000;2022-08-14T03:48:42;99715.75;;;25.52;40.68
70217;BME280;57608;0.000;0.000;2022-08-14T03:51:09;99724.63;;;25.53;41.15
70217;BME280;57608;0.000;0.000;2022-08-14T03:53:40;99721.94;;;25.53;41.45
70217;BME280;57608;0.000;0.000;2022-08-14T03:56:08;99717.44;;;25.53;41.42
70217;BME280;57608;0.000;0.000;2022-08-14T03:58:38;99720.94;;;25.54;41.17
70217;BME280;57608;0.000;0.000;2022-08-14T04:01:07;99712.72;;;25.55;41.46
70217;BME280;57608;0.000;0.000;2022-08-14T04:03:34;99716.25;;;25.56;41.51
70217;BME280;57608;0.000;0.000;2022-08-14T04:06:00;99712.59;;;25.57;41.63
70217;BME280;57608;0.000;0.000;2022-08-14T04:08:26;99712.41;;;25.59;41.49
70217;BME280;57608;0.000;0.000;2022-08-14T04:10:51;99720.28;;;25.60;41.42
70217;BME280;57608;0.000;0.000;2022-08-14T04:13:17;99715.75;;;25.61;41.36
70217;BME280;57608;0.000;0.000;2022-08-14T04:15:44;99716.28;;;25.64;41.70
70217;BME280;57608;0.000;0.000;2022-08-14T04:18:10;99723.31;;;25.65;41.77
70217;BME280;57608;0.000;0.000;2022-08-14T04:20:37;99726.69;;;25.67;41.75
70217;BME280;57608;0.000;0.000;2022-08-14T04:23:03;99720.31;;;25.68;41.75
70217;BME280;57608;0.000;0.000;2022-08-14T04:25:30;99727.38;;;25.69;41.58
70217;BME280;57608;0.000;0.000;2022-08-14T04:28:02;99726.38;;;25.70;41.48
70217;BME280;57608;0.000;0.000;2022-08-14T04:30:30;99724.38;;;25.72;41.62
70217;BME280;57608;0.000;0.000;2022-08-14T04:32:57;99726.03;;;25.73;41.75
70217;BME280;57608;0.000;0.000;2022-08-14T04:35:23;99729.41;;;25.76;41.63
70217;BME280;57608;0.000;0.000;2022-08-14T04:37:48;99725.72;;;25.77;41.63
70217;BME280;57608;0.000;0.000;2022-08-14T04:40:32;99730.91;;;25.78;41.92
70217;BME280;57608;0.000;0.000;2022-08-14T04:43:17;99731.44;;;25.82;41.84
70217;BME280;57608;0.000;0.000;2022-08-14T04:46:22;99725.72;;;25.85;41.78
70217;BME280;57608;0.000;0.000;2022-08-14T04:48:49;99725.53;;;25.86;42.14
70217;BME280;57608;0.000;0.000;2022-08-14T04:51:18;99726.25;;;25.88;41.85
70217;BME280;57608;0.000;0.000;2022-08-14T04:53:47;99723.38;;;25.90;41.96
70217;BME280;57608;0.000;0.000;2022-08-14T04:56:17;99717.00;;;25.91;41.55
70217;BME280;57608;0.000;0.000;2022-08-14T04:58:48;99721.38;;;25.92;41.60
70217;BME280;57608;0.000;0.000;2022-08-14T05:01:15;99723.22;;;25.92;41.84
70217;BME280;57608;0.000;0.000;2022-08-14T05:03:41;99718.69;;;25.92;42.06
70217;BME280;57608;0.000;0.000;2022-08-14T05:06:08;99720.34;;;25.93;41.84
70217;BME280;57608;0.000;0.000;2022-08-14T05:08:36;99724.06;;;25.92;41.81
70217;BME280;57608;0.000;0.000;2022-08-14T05:11:03;99720.34;;;25.93;42.04
70217;BME280;57608;0.000;0.000;2022-08-14T05:13:31;99713.97;;;25.94;41.82
70217;BME280;57608;0.000;0.000;2022-08-14T05:15:58;99720.03;;;25.96;41.87
70217;BME280;57608;0.000;0.000;2022-08-14T05:18:28;99714.69;;;25.96;42.31
70217;BME280;57608;0.000;0.000;2022-08-14T05:20:57;99720.56;;;26.00;42.14
70217;BME280;57608;0.000;0.000;2022-08-14T05:23:25;99719.38;;;26.02;42.22
70217;BME280;57608;0.000;0.000;2022-08-14T05:25:53;99715.38;;;26.07;42.42
70217;BME280;57608;0.000;0.000;2022-08-14T05:28:22;99713.22;;;26.10;42.50
70217;BME280;57608;0.000;0.000;2022-08-14T05:30:53;99712.00;;;26.13;42.37
70217;BME280;57608;0.000;0.000;2022-08-14T05:33:21;99713.38;;;26.17;42.56
70217;BME280;57608;0.000;0.000;2022-08-14T05:35:49;99705.81;;;26.20;42.71
70217;BME280;57608;0.000;0.000;2022-08-14T05:38:17;99707.19;;;26.25;42.65
70217;BME280;57608;0.000;0.000;2022-08-14T05:40:43;99710.34;;;26.28;42.66
70217;BME280;57608;0.000;0.000;2022-08-14T05:43:09;99716.03;;;26.33;42.76
70217;BME280;57608;0.000;0.000;2022-08-14T05:45:35;99714.72;;;26.37;42.71
70217;BME280;57608;0.000;0.000;2022-08-14T05:48:02;99711.69;;;26.41;42.62
70217;BME280;57608;0.000;0.000;2022-08-14T05:50:28;99710.34;;;26.45;42.81
70217;BME280;57608;0.000;0.000;2022-08-14T05:52:57;99708.97;;;26.49;42.65
70217;BME280;57608;0.000;0.000;2022-08-14T05:55:23;99703.94;;;26.54;42.78
70217;BME280;57608;0.000;0.000;2022-08-14T05:57:54;99707.97;;;26.58;42.80
70217;BME280;57608;0.000;0.000;2022-08-14T06:00:28;99710.97;;;26.63;42.79
70217;BME280;57608;0.000;0.000;2022-08-14T06:02:55;99702.59;;;26.66;42.81
70217;BME280;57608;0.000;0.000;2022-08-14T06:05:24;99708.28;;;26.71;42.75
70217;BME280;57608;0.000;0.000;2022-08-14T06:07:51;99705.09;;;26.76;42.76
70217;BME280;57608;0.000;0.000;2022-08-14T06:10:16;99705.59;;;26.80;42.65
70217;BME280;57608;0.000;0.000;2022-08-14T06:12:42;99705.25;;;26.83;42.75
70217;BME280;57608;0.000;0.000;2022-08-14T06:15:08;99704.94;;;26.86;42.89
70217;BME280;57608;0.000;0.000;2022-08-14T06:17:45;99705.44;;;26.90;42.48
70217;BME280;57608;0.000;0.000;2022-08-14T06:20:11;99705.91;;;26.93;42.75
70217;BME280;57608;0.000;0.000;2022-08-14T06:22:38;99708.25;;;26.96;42.54
70217;BME280;57608;0.000;0.000;2022-08-14T06:25:04;99702.53;;;26.99;42.68
70217;BME280;57608;0.000;0.000;2022-08-14T06:27:37;99710.91;;;27.04;42.86
70217;BME280;57608;0.000;0.000;2022-08-14T06:30:10;99705.19;;;27.08;42.72
70217;BME280;57608;0.000;0.000;2022-08-14T06:32:36;99709.22;;;27.12;43.01
70217;BME280;57608;0.000;0.000;2022-08-14T06:35:04;99700.63;;;27.16;42.86
70217;BME280;57608;0.000;0.000;2022-08-14T06:40:21;99694.53;;;27.23;42.85
70217;BME280;57608;0.000;0.000;2022-08-14T06:42:48;99701.59;;;27.24;42.29
70217;BME280;57608;0.000;0.000;2022-08-14T06:45:14;99699.75;;;27.24;41.95
70217;BME280;57608;0.000;0.000;2022-08-14T06:47:41;99694.53;;;27.23;41.78
70217;BME280;57608;0.000;0.000;2022-08-14T06:50:10;99702.78;;;27.21;41.61
70217;BME280;57608;0.000;0.000;2022-08-14T06:52:37;99707.31;;;27.20;41.78
70217;BME280;57608;0.000;0.000;2022-08-14T06:55:05;99699.44;;;27.19;41.48
70217;BME280;57608;0.000;0.000;2022-08-14T06:57:45;99706.84;;;27.17;41.35
70217;BME280;57608;0.000;0.000;2022-08-14T07:00:19;99706.16;;;27.15;41.38
70217;BME280;57608;0.000;0.000;2022-08-14T07:02:45;99700.13;;;27.13;41.30
70217;BME280;57608;0.000;0.000;2022-08-14T07:05:29;99708.19;;;27.13;41.53
70217;BME280;57608;0.000;0.000;2022-08-14T07:10:51;99698.47;;;27.12;41.53
70217;BME280;57608;0.000;0.000;2022-08-14T07:13:17;99696.41;;;27.14;41.64
70217;BME280;57608;0.000;0.000;2022-08-14T07:15:44;99698.94;;;27.15;41.85
70217;BME280;57608;0.000;0.000;2022-08-14T07:18:11;99696.09;;;27.17;41.62
70217;BME280;57608;0.000;0.000;2022-08-14T07:20:38;99687.16;;;27.16;41.11
70217;BME280;57608;0.000;0.000;2022-08-14T07:23:07;99700.44;;;27.18;41.02
70217;BME280;57608;0.000;0.000;2022-08-14T07:25:33;99698.59;;;27.18;41.06
70217;BME280;57608;0.000;0.000;2022-08-14T07:28:00;99694.03;;;27.19;41.18
70217;BME280;57608;0.000;0.000;2022-08-14T07:30:25;99693.88;;;27.20;41.04
70217;BME280;57608;0.000;0.000;2022-08-14T07:32:51;99699.09;;;27.22;40.45
70217;BME280;57608;0.000;0.000;2022-08-14T07:35:17;99696.22;;;27.24;40.75
70217;BME280;57608;0.000;0.000;2022-08-14T07:37:46;99692.34;;;27.26;40.37
70217;BME280;57608;0.000;0.000;2022-08-14T07:40:12;99696.72;;;27.27;40.47
70217;BME280;57608;0.000;0.000;2022-08-14T07:42:37;99699.03;;;27.30;40.10
70217;BME280;57608;0.000;0.000;2022-08-14T07:45:05;99697.19;;;27.31;39.81
70217;BME280;57608;0.000;0.000;2022-08-14T07:47:31;99703.41;;;27.31;40.16
70217;BME280;57608;0.000;0.000;2022-08-14T07:50:02;99695.16;;;27.33;40.51
70217;BME280;57608;0.000;0.000;2022-08-14T07:52:28;99696.84;;;27.34;39.68
70217;BME280;57608;0.000;0.000;2022-08-14T07:54:54;99693.13;;;27.35;39.85
70217;BME280;57608;0.000;0.000;2022-08-14T07:57:20;99694.81;;;27.36;39.77
70217;BME280;57608;0.000;0.000;2022-08-14T07:59:45;99692.97;;;27.36;39.44
70217;BME280;57608;0.000;0.000;2022-08-14T08:02:13;99694.63;;;27.37;39.62
70217;BME280;57608;0.000;0.000;2022-08-14T08:04:43;99696.50;;;27.37;39.61
70217;BME280;57608;0.000;0.000;2022-08-14T08:07:09;99698.34;;;27.36;39.26
70217;BME280;57608;0.000;0.000;2022-08-14T08:09:35;99694.81;;;27.36;38.84
70217;BME280;57608;0.000;0.000;2022-08-14T08:12:03;99699.38;;;27.35;39.01
70217;BME280;57608;0.000;0.000;2022-08-14T08:14:32;99699.53;;;27.34;38.96
70217;BME280;57608;0.000;0.000;2022-08-14T08:16:59;99696.00;;;27.33;38.92
70217;BME280;57608;0.000;0.000;2022-08-14T08:19:25;99696.00;;;27.33;38.87
70217;BME280;57608;0.000;0.000;2022-08-14T08:21:51;99703.88;;;27.35;38.76
70217;BME280;57608;0.000;0.000;2022-08-14T08:24:18;99703.88;;;27.35;38.69
70217;BME280;57608;0.000;0.000;2022-08-14T08:26:44;99695.00;;;27.34;38.62
70217;BME280;57608;0.000;0.000;2022-08-14T08:29:18;99699.53;;;27.34;38.64
70217;BME280;57608;0.000;0.000;2022-08-14T08:31:47;99698.69;;;27.33;38.16
70217;BME280;57608;0.000;0.000;2022-08-14T08:34:18;99699.69;;;27.32;38.32
70217;BME280;57608;0.000;0.000;2022-08-14T08:36:44;99697.00;;;27.32;38.13
70217;BME280;57608;0.000;0.000;2022-08-14T08:39:11;99690.97;;;27.30;37.82
70217;BME280;57608;0.000;0.000;2022-08-14T08:41:44;99688.66;;;27.27;37.71
70217;BME280;57608;0.000;0.000;2022-08-14T08:44:11;99688.16;;;27.24;37.67
70217;BME280;57608;0.000;0.000;2022-08-14T08:46:37;99691.03;;;27.22;37.47
70217;BME280;57608;0.000;0.000;2022-08-14T08:49:02;99691.53;;;27.17;37.53
70217;BME280;57608;0.000;0.000;2022-08-14T08:51:33;99683.66;;;27.16;37.56
70217;BME280;57608;0.000;0.000;2022-08-14T08:54:04;99683.97;;;27.13;37.71
70217;BME280;57608;0.000;0.000;2022-08-14T08:56:40;99686.03;;;27.11;37.79
70217;BME280;57608;0.000;0.000;2022-08-14T08:59:24;99681.66;;;27.10;37.80
70217;BME280;57608;0.000;0.000;2022-08-14T09:01:53;99684.69;;;27.07;37.93
70217;BME280;57608;0.000;0.000;2022-08-14T09:04:22;99676.78;;;27.05;37.58
70217;BME280;57608;0.000;0.000;2022-08-14T09:06:51;99675.97;;;27.04;37.75
70217;BME280;57608;0.000;0.000;2022-08-14T09:09:24;99675.78;;;27.06;37.69
70217;BME280;57608;0.000;0.000;2022-08-14T09:11:51;99673.09;;;27.06;37.89
70217;BME280;57608;0.000;0.000;2022-08-14T09:14:24;99673.09;;;27.06;37.70
70217;BME280;57608;0.000;0.000;2022-08-14T09:16:54;99672.25;;;27.06;37.78
70217;BME280;57608;0.000;0.000;2022-08-14T09:19:20;99673.09;;;27.06;37.75
70217;BME280;57608;0.000;0.000;2022-08-14T09:21:45;99672.25;;;27.06;37.94
70217;BME280;57608;0.000;0.000;2022-08-14T09:24:15;99674.78;;;27.07;37.93
70217;BME280;57608;0.000;0.000;2022-08-14T09:26:43;99669.22;;;27.09;37.91
70217;BME280;57608;0.000;0.000;2022-08-14T09:29:09;99670.72;;;27.11;38.08
70217;BME280;57608;0.000;0.000;2022-08-14T09:31:37;99669.53;;;27.14;37.96
70217;BME280;57608;0.000;0.000;2022-08-14T09:47:07;99662.09;;;27.24;38.05
70217;BME280;57608;0.000;0.000;2022-08-14T09:49:36;99657.72;;;27.23;37.96
70217;BME280;57608;0.000;0.000;2022-08-14T09:54:46;99663.75;;;27.25;38.05
70217;BME280;57608;0.000;0.000;2022-08-14T09:57:26;99655.69;;;27.25;37.71
70217;BME280;57608;0.000;0.000;2022-08-14T09:59:51;99664.59;;;27.26;37.72
70217;BME280;57608;0.000;0.000;2022-08-14T10:02:19;99660.06;;;27.26;37.53
70217;BME280;57608;0.000;0.000;2022-08-14T10:04:57;99664.44;;;27.27;37.62
70217;BME280;57608;0.000;0.000;2022-08-14T10:07:35;99656.38;;;27.27;37.49
70217;BME280;57608;0.000;0.000;2022-08-14T10:10:02;99664.44;;;27.27;37.71
70217;BME280;57608;0.000;0.000;2022-08-14T10:12:45;99656.38;;;27.27;37.87
70217;BME280;57608;0.000;0.000;2022-08-14T10:15:17;99661.75;;;27.27;37.87
70217;BME280;57608;0.000;0.000;2022-08-14T10:17:44;99659.88;;;27.28;37.58
70217;BME280;57608;0.000;0.000;2022-08-14T10:20:11;99653.69;;;27.27;37.33
70217;BME280;57608;0.000;0.000;2022-08-14T10:22:38;99664.44;;;27.27;37.45
70217;BME280;57608;0.000;0.000;2022-08-14T10:25:13;99653.69;;;27.27;37.78
70217;BME280;57608;0.000;0.000;2022-08-14T10:27:40;99663.59;;;27.27;37.28
70217;BME280;57608;0.000;0.000;2022-08-14T10:30:17;99666.47;;;27.25;37.39
70217;BME280;57608;0.000;0.000;2022-08-14T10:32:46;99663.94;;;27.24;37.46
70217;BME280;57608;0.000;0.000;2022-08-14T10:35:14;99669.50;;;27.22;37.24
70217;BME280;57608;0.000;0.000;2022-08-14T10:37:51;99667.16;;;27.19;37.27
70217;BME280;57608;0.000;0.000;2022-08-14T10:40:28;99661.28;;;27.15;37.32
70217;BME280;57608;0.000;0.000;2022-08-14T10:42:54;99650.06;;;27.12;37.25
70217;BME280;57608;0.000;0.000;2022-08-14T10:45:29;99647.69;;;27.09;37.20
70217;BME280;57608;0.000;0.000;2022-08-14T10:47:55;99654.09;;;27.08;36.94
70217;BME280;57608;0.000;0.000;2022-08-14T10:50:47;99659.81;;;27.04;37.42
70217;BME280;57608;0.000;0.000;2022-08-14T10:53:29;99654.81;;;27.01;37.17
70217;BME280;57608;0.000;0.000;2022-08-14T10:55:59;99651.44;;;26.99;37.20
70217;BME280;57608;0.000;0.000;2022-08-14T10:58:26;99655.13;;;26.98;37.37
70217;BME280;57608;0.000;0.000;2022-08-14T11:00:57;99652.63;;;26.97;37.27
70217;BME280;57608;0.000;0.000;2022-08-14T11:03:23;99646.41;;;26.96;37.21
70217;BME280;57608;0.000;0.000;2022-08-14T11:05:51;99649.28;;;26.95;37.09
70217;BME280;57608;0.000;0.000;2022-08-14T11:08:31;99645.75;;;26.94;37.34
70217;BME280;57608;0.000;0.000;2022-08-14T11:10:59;99652.13;;;26.93;37.23
70217;BME280;57608;0.000;0.000;2022-08-14T11:13:28;99646.75;;;26.93;37.37
70217;BME280;57608;0.000;0.000;2022-08-14T11:15:55;99646.75;;;26.93;37.12
70217;BME280;57608;0.000;0.000;2022-08-14T11:18:25;99642.41;;;26.92;37.34
70217;BME280;57608;0.000;0.000;2022-08-14T11:20:55;99644.91;;;26.94;37.51
70217;BME280;57608;0.000;0.000;2022-08-14T11:23:31;99653.47;;;26.97;37.59
70217;BME280;57608;0.000;0.000;2022-08-14T11:25:59;99653.13;;;27.00;37.36
70217;BME280;57608;0.000;0.000;2022-08-14T11:28:26;99659.31;;;27.01;37.67
70217;BME280;57608;0.000;0.000;2022-08-14T11:30:53;99650.06;;;27.03;37.63
70217;BME280;57608;0.000;0.000;2022-08-14T11:33:22;99655.28;;;27.05;37.68
70217;BME280;57608;0.000;0.000;2022-08-14T11:35:49;99646.19;;;27.06;37.62
70217;BME280;57608;0.000;0.000;2022-08-14T11:38:15;99643.31;;;27.08;37.75
70217;BME280;57608;0.000;0.000;2022-08-14T11:40:41;99635.94;;;27.10;37.72
70217;BME280;57608;0.000;0.000;2022-08-14T11:43:08;99643.63;;;27.13;37.81
70217;BME280;57608;0.000;0.000;2022-08-14T11:45:38;99644.31;;;27.15;37.88
70217;BME280;57608;0.000;0.000;2022-08-14T11:48:21;99647.69;;;27.17;37.85
70217;BME280;57608;0.000;0.000;2022-08-14T11:50:49;99640.63;;;27.16;37.91
70217;BME280;57608;0.000;0.000;2022-08-14T11:53:24;99640.44;;;27.17;37.80
70217;BME280;57608;0.000;0.000;2022-08-14T11:56:03;99639.44;;;27.18;37.59
70217;BME280;57608;0.000;0.000;2022-08-14T11:58:31;99642.31;;;27.17;37.68
70217;BME280;57608;0.000;0.000;2022-08-14T12:00:59;99638.56;;;27.18;37.26
70217;BME280;57608;0.000;0.000;2022-08-14T12:03:36;99634.88;;;27.19;37.57
70217;BME280;57608;0.000;0.000;2022-08-14T12:06:06;99635.72;;;27.19;37.59
70217;BME280;57608;0.000;0.000;2022-08-14T12:08:34;99630.16;;;27.21;37.50
70217;BME280;57608;0.000;0.000;2022-08-14T12:11:00;99633.69;;;27.21;37.58
70217;BME280;57608;0.000;0.000;2022-08-14T12:13:28;99628.31;;;27.21;37.29
70217;BME280;57608;0.000;0.000;2022-08-14T12:16:04;99637.22;;;27.22;37.49
70217;BME280;57608;0.000;0.000;2022-08-14T12:18:44;99639.06;;;27.21;37.32
70217;BME280;57608;0.000;0.000;2022-08-14T12:21:20;99634.53;;;27.22;37.28
70217;BME280;57608;0.000;0.000;2022-08-14T12:24:00;99626.63;;;27.20;37.29
70217;BME280;57608;0.000;0.000;2022-08-14T12:26:26;99622.44;;;27.18;37.21
70217;BME280;57608;0.000;0.000;2022-08-14T12:31:34;99620.28;;;27.13;37.30
70217;BME280;57608;0.000;0.000;2022-08-14T12:34:03;99622.31;;;27.11;37.23
70217;BME280;57608;0.000;0.000;2022-08-14T12:36:29;99621.81;;;27.08;36.96
70217;BME280;57608;0.000;0.000;2022-08-14T12:39:04;99621.16;;;27.06;37.13
70217;BME280;57608;0.000;0.000;2022-08-14T12:41:31;99626.72;;;27.04;36.96
70217;BME280;57608;0.000;0.000;2022-08-14T12:44:04;99619.84;;;27.01;37.45
70217;BME280;57608;0.000;0.000;2022-08-14T12:46:38;99620.00;;;27.00;37.19
70217;BME280;57608;0.000;0.000;2022-08-14T12:49:14;99612.13;;;26.98;37.26
70217;BME280;57608;0.000;0.000;2022-08-14T12:51:41;99620.19;;;26.98;37.46
70217;BME280;57608;0.000;0.000;2022-08-14T12:54:15;99613.97;;;26.98;37.53
70217;BME280;57608;0.000;0.000;2022-08-14T12:56:42;99611.28;;;26.98;37.62
70217;BME280;57608;0.000;0.000;2022-08-14T12:59:09;99607.59;;;26.99;37.81
70217;BME280;57608;0.000;0.000;2022-08-14T13:01:35;99610.09;;;27.00;37.56
70217;BME280;57608;0.000;0.000;2022-08-14T13:04:13;99604.53;;;27.02;37.78
70217;BME280;57608;0.000;0.000;2022-08-14T13:06:41;99599.84;;;27.04;37.59
70217;BME280;57608;0.000;0.000;2022-08-14T13:09:10;99606.03;;;27.04;37.38
70217;BME280;57608;0.000;0.000;2022-08-14T13:11:50;99602.34;;;27.06;37.61
70217;BME280;57608;0.000;0.000;2022-08-14T13:14:22;99604.03;;;27.07;37.70
70217;BME280;57608;0.000;0.000;2022-08-14T13:16:55;99605.69;;;27.08;37.69
70217;BME280;57608;0.000;0.000;2022-08-14T13:19:22;99607.38;;;27.09;37.27
70217;BME280;57608;0.000;0.000;2022-08-14T13:21:50;99599.13;;;27.10;37.48
70217;BME280;57608;0.000;0.000;2022-08-14T13:24:18;99600.78;;;27.11;37.55
70217;BME280;57608;0.000;0.000;2022-08-14T13:26:47;99592.53;;;27.13;37.29
70217;BME280;57608;0.000;0.000;2022-08-14T13:29:18;99594.22;;;27.14;37.42
70217;BME280;57608;0.000;0.000;2022-08-14T13:31:43;99585.34;;;27.13;37.38
70217;BME280;57608;0.000;0.000;2022-08-14T13:34:14;99594.91;;;27.16;37.28
70217;BME280;57608;0.000;0.000;2022-08-14T13:36:40;99595.91;;;27.15;37.28
70217;BME280;57608;0.000;0.000;2022-08-14T13:39:06;99601.28;;;27.15;37.21
70217;BME280;57608;0.000;0.000;2022-08-14T13:41:33;99599.41;;;27.15;37.64
70217;BME280;57608;0.000;0.000;2022-08-14T13:43:59;99597.59;;;27.16;37.39
70217;BME280;57608;0.000;0.000;2022-08-14T13:46:25;99595.72;;;27.16;37.60